createdAt,value
2017-12-17T00:00:59.274Z,7.00
2017-12-17T00:03:27.467Z,7.20
2017-12-17T00:05:55.009Z,7.20
2017-12-17T00:08:23.280Z,6.70
2017-12-17T00:10:50.718Z,6.60
2017-12-17T00:13:18.194Z,7.10
2017-12-17T00:15:46.400Z,7.40
2017-12-17T00:18:13.843Z,7.40
2017-12-17T00:20:42.107Z,7.30
2017-12-17T00:23:09.551Z,7.30
2017-12-17T00:25:37.011Z,6.90
2017-12-17T00:28:04.467Z,7.20
2017-12-17T00:30:31.927Z,7.50
2017-12-17T00:32:59.407Z,7.80
2017-12-17T00:35:27.593Z,7.40
2017-12-17T00:37:55.049Z,7.40
2017-12-17T00:40:22.514Z,7.30
2017-12-17T00:42:49.970Z,7.00
2017-12-17T00:45:17.417Z,7.20
2017-12-17T00:47:44.897Z,7.20
2017-12-17T00:50:12.320Z,7.20
2017-12-17T00:52:39.981Z,7.40
2017-12-17T00:55:08.193Z,6.70
2017-12-17T00:57:35.645Z,6.70
2017-12-17T01:00:03.094Z,6.60
2017-12-17T01:02:30.563Z,6.80
2017-12-17T01:04:58.064Z,7.20
2017-12-17T01:07:25.497Z,7.00
2017-12-17T01:09:52.907Z,7.30
2017-12-17T01:12:21.168Z,7.80
2017-12-17T01:14:48.622Z,7.80
2017-12-17T01:17:16.049Z,7.60
2017-12-17T01:19:43.490Z,7.10
2017-12-17T01:22:10.938Z,7.30
2017-12-17T01:24:38.380Z,7.10
2017-12-17T01:27:05.806Z,6.70
2017-12-17T01:29:33.245Z,6.70
2017-12-17T01:32:00.689Z,7.20
2017-12-17T01:34:28.151Z,7.60
2017-12-17T01:36:56.349Z,7.40
2017-12-17T01:39:23.778Z,7.40
2017-12-17T01:41:51.233Z,7.00
2017-12-17T01:44:18.684Z,6.70
2017-12-17T01:46:46.132Z,6.80
2017-12-17T01:49:13.594Z,6.90
2017-12-17T01:51:41.054Z,6.50
2017-12-17T01:54:08.527Z,6.70
2017-12-17T01:56:36.002Z,7.20
2017-12-17T01:59:03.457Z,7.10
2017-12-17T02:01:30.919Z,7.30
2017-12-17T02:03:58.374Z,7.10
2017-12-17T02:06:25.844Z,7.40
2017-12-17T02:08:53.317Z,7.30
2017-12-17T02:11:20.745Z,7.70
2017-12-17T02:13:48.237Z,7.80
2017-12-17T02:16:15.700Z,7.60
2017-12-17T02:18:43.934Z,7.30
2017-12-17T02:21:11.381Z,7.30
2017-12-17T02:23:38.840Z,7.30
2017-12-17T02:26:06.304Z,7.40
2017-12-17T02:28:33.759Z,7.70
2017-12-17T02:31:01.245Z,7.50
2017-12-17T02:33:29.468Z,7.80
2017-12-17T02:35:56.882Z,7.80
2017-12-17T02:38:25.082Z,7.20
2017-12-17T02:40:52.509Z,7.20
2017-12-17T02:43:19.969Z,7.40
2017-12-17T02:45:48.161Z,7.10
2017-12-17T02:48:15.611Z,7.10
2017-12-17T02:50:43.801Z,7.00
2017-12-17T02:53:11.253Z,7.00
2017-12-17T02:55:38.684Z,6.70
2017-12-17T02:58:06.157Z,7.00
2017-12-17T03:00:34.369Z,7.00
2017-12-17T03:03:01.802Z,7.00
2017-12-17T03:05:29.252Z,7.30
2017-12-17T03:07:57.445Z,7.20
2017-12-17T03:10:24.901Z,7.20
2017-12-17T03:12:52.371Z,7.10
2017-12-17T03:15:20.054Z,7.20
2017-12-17T03:17:47.492Z,7.30
2017-12-17T03:20:14.937Z,7.40
2017-12-17T03:22:42.397Z,7.90
2017-12-17T03:25:09.863Z,7.60
2017-12-17T03:27:37.313Z,7.70
2017-12-17T03:30:04.761Z,7.40
2017-12-17T03:32:32.229Z,7.60
2017-12-17T03:34:59.663Z,7.80
2017-12-17T03:37:27.877Z,7.50
2017-12-17T03:39:55.333Z,7.40
2017-12-17T03:42:22.781Z,6.80
2017-12-17T03:44:50.243Z,6.70
2017-12-17T03:47:17.700Z,7.10
2017-12-17T03:49:45.161Z,7.40
2017-12-17T03:52:12.590Z,7.00
2017-12-17T03:54:40.409Z,7.30
2017-12-17T03:57:08.376Z,7.30
2017-12-17T03:59:35.821Z,7.00
2017-12-17T04:02:04.015Z,7.50
2017-12-17T04:04:31.476Z,7.60
2017-12-17T04:06:58.941Z,7.60
2017-12-17T04:09:26.381Z,7.50
2017-12-17T04:11:53.857Z,7.30
2017-12-17T04:14:22.108Z,7.20
2017-12-17T04:16:49.549Z,7.20
2017-12-17T04:19:17.031Z,7.50
2017-12-17T04:21:44.489Z,7.30
2017-12-17T04:24:11.953Z,7.30
2017-12-17T04:26:40.326Z,7.40
2017-12-17T04:29:07.797Z,7.40
2017-12-17T04:31:35.265Z,7.40
2017-12-17T04:34:02.725Z,7.10
2017-12-17T04:36:30.160Z,7.00
2017-12-17T04:38:57.651Z,7.10
2017-12-17T04:41:25.099Z,7.30
2017-12-17T04:43:52.572Z,7.20
2017-12-17T04:46:20.802Z,6.90
2017-12-17T04:48:48.286Z,6.90
2017-12-17T04:51:15.818Z,7.10
2017-12-17T04:53:44.051Z,7.10
2017-12-17T04:56:11.497Z,7.10
2017-12-17T04:58:40.614Z,7.00
2017-12-17T05:01:08.066Z,7.00
2017-12-17T05:03:35.502Z,7.20
2017-12-17T05:06:03.685Z,7.10
2017-12-17T05:08:31.916Z,7.00
2017-12-17T05:10:59.333Z,7.00
2017-12-17T05:13:26.763Z,7.40
2017-12-17T05:15:55.076Z,7.60
2017-12-17T05:18:22.516Z,7.60
2017-12-17T05:20:50.711Z,7.90
2017-12-17T05:23:18.174Z,7.90
2017-12-17T05:25:45.605Z,7.80
2017-12-17T05:28:13.807Z,7.20
2017-12-17T05:30:41.233Z,7.20
2017-12-17T05:33:09.480Z,7.70
2017-12-17T05:35:36.935Z,7.70
2017-12-17T05:38:04.395Z,7.60
2017-12-17T05:40:31.855Z,7.60
2017-12-17T05:42:59.314Z,7.30
2017-12-17T05:45:26.779Z,7.60
2017-12-17T05:47:54.240Z,7.10
2017-12-17T05:50:21.698Z,7.40
2017-12-17T05:52:49.158Z,7.80
2017-12-17T05:55:17.357Z,8.10
2017-12-17T05:57:44.786Z,8.00
2017-12-17T06:00:12.245Z,7.80
2017-12-17T06:02:40.632Z,7.30
2017-12-17T06:05:08.829Z,7.50
2017-12-17T06:07:36.277Z,7.50
2017-12-17T06:10:03.737Z,7.50
2017-12-17T06:12:31.186Z,7.50
2017-12-17T06:14:59.409Z,7.20
2017-12-17T06:17:26.849Z,7.20
2017-12-17T06:19:54.333Z,7.40
2017-12-17T06:22:21.762Z,7.30
2017-12-17T06:24:49.229Z,7.20
2017-12-17T06:27:16.689Z,7.20
2017-12-17T06:29:44.150Z,7.60
2017-12-17T06:32:11.612Z,7.60
2017-12-17T06:34:39.065Z,7.40
2017-12-17T06:37:06.501Z,7.30
2017-12-17T06:39:33.973Z,7.10
2017-12-17T06:42:01.447Z,7.10
2017-12-17T06:44:28.878Z,7.30
2017-12-17T06:46:56.332Z,7.30
2017-12-17T06:49:23.796Z,7.40
2017-12-17T06:51:51.255Z,7.80
2017-12-17T06:54:18.729Z,7.90
2017-12-17T06:56:46.189Z,7.80
2017-12-17T06:59:13.668Z,7.70
2017-12-17T07:01:41.144Z,7.90
2017-12-17T07:04:08.580Z,7.80
2017-12-17T07:06:36.183Z,8.00
2017-12-17T07:09:04.395Z,7.40
2017-12-17T07:11:31.869Z,7.40
2017-12-17T07:13:59.368Z,7.70
2017-12-17T07:16:27.651Z,7.50
2017-12-17T07:18:55.967Z,7.80
2017-12-17T07:21:23.389Z,7.80
2017-12-17T07:23:51.640Z,7.50
2017-12-17T07:26:19.081Z,7.50
2017-12-17T07:28:46.552Z,7.40
2017-12-17T07:31:14.029Z,7.70
2017-12-17T07:33:42.464Z,7.90
2017-12-17T07:36:09.919Z,7.20
2017-12-17T07:38:38.574Z,7.20
2017-12-17T07:41:05.989Z,7.50
2017-12-17T07:43:34.547Z,7.80
2017-12-17T07:46:02.256Z,7.70
2017-12-17T07:48:30.449Z,7.50
2017-12-17T07:50:57.909Z,7.50
2017-12-17T07:53:25.364Z,7.00
2017-12-17T07:55:53.114Z,6.70
2017-12-17T07:58:22.202Z,6.30
2017-12-17T08:00:50.398Z,6.70
2017-12-17T08:03:17.842Z,6.60
2017-12-17T08:05:46.043Z,7.10
2017-12-17T08:08:14.373Z,7.00
2017-12-17T08:10:41.828Z,7.00
2017-12-17T08:13:09.400Z,7.30
2017-12-17T08:15:36.874Z,7.30
2017-12-17T08:18:04.325Z,7.20
2017-12-17T08:20:32.582Z,7.50
2017-12-17T08:23:00.042Z,7.50
2017-12-17T08:25:27.504Z,7.60
2017-12-17T08:27:54.959Z,7.90
2017-12-17T08:30:22.450Z,7.70
2017-12-17T08:32:49.905Z,7.40
2017-12-17T08:35:17.370Z,7.30
2017-12-17T08:37:44.838Z,7.10
2017-12-17T08:40:12.353Z,7.30
2017-12-17T08:42:40.588Z,7.50
2017-12-17T08:45:08.737Z,7.50
2017-12-17T08:47:36.180Z,7.50
2017-12-17T08:50:04.379Z,7.40
2017-12-17T08:52:31.837Z,7.30
2017-12-17T08:54:59.293Z,7.50
2017-12-17T08:57:26.759Z,7.80
2017-12-17T08:59:56.351Z,7.10
2017-12-17T09:02:23.815Z,7.20
2017-12-17T09:04:51.283Z,7.40
2017-12-17T09:07:18.757Z,7.30
2017-12-17T09:09:46.240Z,6.90
2017-12-17T09:12:13.681Z,7.20
2017-12-17T09:14:41.139Z,7.10
2017-12-17T09:17:08.581Z,7.20
2017-12-17T09:19:36.043Z,7.20
2017-12-17T09:22:03.496Z,7.00
2017-12-17T09:24:30.930Z,7.10
2017-12-17T09:26:58.402Z,7.50
2017-12-17T09:29:25.858Z,7.50
2017-12-17T09:31:53.316Z,7.10
2017-12-17T09:34:20.772Z,7.10
2017-12-17T09:36:48.238Z,7.50
2017-12-17T09:39:15.704Z,7.50
2017-12-17T09:41:43.185Z,8.00
2017-12-17T09:44:10.633Z,7.50
2017-12-17T09:46:38.089Z,7.00
2017-12-17T09:49:05.560Z,7.10
2017-12-17T09:51:34.539Z,7.00
2017-12-17T09:54:01.990Z,7.00
2017-12-17T09:56:29.457Z,7.10
2017-12-17T09:58:56.896Z,7.30
2017-12-17T10:01:24.376Z,7.90
2017-12-17T10:03:51.812Z,7.60
2017-12-17T10:06:19.270Z,7.70
2017-12-17T10:08:46.745Z,7.60
2017-12-17T10:11:14.189Z,7.10
2017-12-17T10:13:41.649Z,7.60
2017-12-17T10:16:09.058Z,8.00
2017-12-17T10:18:37.321Z,7.50
2017-12-17T10:21:05.519Z,7.70
2017-12-17T10:23:32.946Z,7.70
2017-12-17T10:26:01.153Z,7.60
2017-12-17T10:28:28.584Z,7.60
2017-12-17T10:30:56.831Z,7.80
2017-12-17T10:33:24.285Z,7.80
2017-12-17T10:35:51.741Z,8.40
2017-12-17T10:38:19.203Z,8.70
2017-12-17T10:40:46.663Z,7.40
2017-12-17T10:43:14.078Z,7.10
2017-12-17T10:45:41.516Z,7.80
2017-12-17T10:48:08.975Z,8.30
2017-12-17T10:50:37.165Z,8.90
2017-12-17T10:53:04.707Z,8.90
2017-12-17T10:55:32.909Z,8.40
2017-12-17T10:58:00.363Z,8.40
2017-12-17T11:00:27.799Z,8.40
2017-12-17T11:02:55.999Z,8.50
2017-12-17T11:05:23.441Z,8.50
2017-12-17T11:07:51.657Z,8.20
2017-12-17T11:10:19.095Z,8.10
2017-12-17T11:12:46.531Z,8.40
2017-12-17T11:15:13.964Z,8.70
2017-12-17T11:17:42.194Z,8.50
2017-12-17T11:20:09.604Z,8.50
2017-12-17T11:22:37.812Z,9.10
2017-12-17T11:25:05.257Z,9.10
2017-12-17T11:27:32.717Z,8.50
2017-12-17T11:30:00.913Z,7.50
2017-12-17T11:32:28.360Z,7.50
2017-12-17T11:34:56.749Z,8.30
2017-12-17T11:37:24.195Z,8.10
2017-12-17T11:39:51.658Z,8.20
2017-12-17T11:42:19.115Z,8.50
2017-12-17T11:44:46.569Z,8.30
2017-12-17T11:47:14.038Z,8.50
2017-12-17T11:49:41.505Z,8.90
2017-12-17T11:52:08.950Z,9.10
2017-12-17T11:54:36.432Z,8.70
2017-12-17T11:57:03.865Z,8.50
2017-12-17T11:59:31.326Z,8.30
2017-12-17T12:01:58.773Z,8.10
2017-12-17T12:04:26.250Z,7.80
2017-12-17T12:06:53.706Z,8.00
2017-12-17T12:09:21.169Z,7.70
2017-12-17T12:11:48.621Z,7.80
2017-12-17T12:14:16.092Z,7.80
2017-12-17T12:16:43.529Z,7.70
2017-12-17T12:19:10.989Z,8.00
2017-12-17T12:21:38.457Z,8.10
2017-12-17T12:24:05.922Z,8.30
2017-12-17T12:26:33.381Z,8.10
2017-12-17T12:29:00.815Z,7.80
2017-12-17T12:31:28.222Z,8.20
2017-12-17T12:33:55.661Z,8.20
2017-12-17T12:36:23.135Z,8.40
2017-12-17T12:38:50.820Z,8.30
2017-12-17T12:41:19.056Z,7.90
2017-12-17T12:43:46.515Z,7.90
2017-12-17T12:46:14.752Z,7.70
2017-12-17T12:48:42.177Z,7.90
2017-12-17T12:51:10.426Z,7.90
2017-12-17T12:53:38.188Z,7.90
2017-12-17T12:56:05.893Z,8.30
2017-12-17T12:58:33.331Z,8.30
2017-12-17T13:01:00.782Z,8.10
2017-12-17T13:03:28.231Z,8.50
2017-12-17T13:05:55.805Z,8.30
2017-12-17T13:08:24.014Z,7.80
2017-12-17T13:10:51.449Z,7.80
2017-12-17T13:13:19.633Z,7.80
2017-12-17T13:15:47.069Z,7.80
2017-12-17T13:18:15.265Z,8.00
2017-12-17T13:20:42.721Z,7.90
2017-12-17T13:23:10.907Z,7.80
2017-12-17T13:25:38.353Z,7.80
2017-12-17T13:28:06.548Z,7.80
2017-12-17T13:30:34.769Z,7.80
2017-12-17T13:33:02.227Z,7.80
2017-12-17T13:35:29.692Z,7.80
2017-12-17T13:37:57.147Z,8.10
2017-12-17T13:40:24.623Z,8.20
2017-12-17T13:42:52.829Z,7.80
2017-12-17T13:45:20.270Z,7.80
2017-12-17T13:47:47.749Z,8.10
2017-12-17T13:50:15.191Z,8.30
2017-12-17T13:52:42.662Z,7.90
2017-12-17T13:55:10.142Z,8.00
2017-12-17T13:57:37.585Z,7.70
2017-12-17T14:00:05.027Z,7.80
2017-12-17T14:02:32.476Z,7.80
2017-12-17T14:04:59.925Z,7.20
2017-12-17T14:07:27.398Z,7.30
2017-12-17T14:09:54.840Z,7.70
2017-12-17T14:12:23.865Z,8.00
2017-12-17T14:14:51.319Z,8.00
2017-12-17T14:17:18.782Z,8.00
2017-12-17T14:19:46.253Z,7.90
2017-12-17T14:22:13.692Z,7.80
2017-12-17T14:24:41.769Z,7.60
2017-12-17T14:27:09.236Z,7.30
2017-12-17T14:29:36.665Z,7.50
2017-12-17T14:32:04.136Z,7.60
2017-12-17T14:34:31.609Z,7.80
2017-12-17T14:36:59.053Z,7.80
2017-12-17T14:39:26.534Z,7.60
2017-12-17T14:41:53.981Z,7.70
2017-12-17T14:44:21.445Z,7.60
2017-12-17T14:46:48.907Z,7.30
2017-12-17T14:49:16.368Z,7.60
2017-12-17T14:51:43.797Z,7.30
2017-12-17T14:54:11.276Z,7.20
2017-12-17T14:56:38.760Z,7.70
2017-12-17T14:59:06.213Z,8.20
2017-12-17T15:01:33.668Z,7.90
2017-12-17T15:04:01.189Z,7.60
2017-12-17T15:06:28.648Z,7.30
2017-12-17T15:08:56.112Z,7.40
2017-12-17T15:11:24.334Z,7.00
2017-12-17T15:13:51.791Z,7.00
2017-12-17T15:16:19.253Z,6.90
2017-12-17T15:18:46.694Z,7.00
2017-12-17T15:21:14.345Z,7.10
2017-12-17T15:23:42.759Z,7.60
2017-12-17T15:26:10.219Z,7.60
2017-12-17T15:28:38.457Z,7.70
2017-12-17T15:31:05.906Z,7.70
2017-12-17T15:33:33.366Z,7.40
2017-12-17T15:36:00.826Z,7.50
2017-12-17T15:38:28.307Z,7.40
2017-12-17T15:40:55.761Z,7.50
2017-12-17T15:43:23.228Z,7.90
2017-12-17T15:45:50.687Z,8.10
2017-12-17T15:48:18.906Z,7.80
2017-12-17T15:50:46.361Z,7.80
2017-12-17T15:53:13.822Z,7.80
2017-12-17T15:55:42.087Z,7.60
2017-12-17T15:58:09.561Z,7.00
2017-12-17T16:00:37.010Z,7.10
2017-12-17T16:03:04.449Z,7.00
2017-12-17T16:05:31.889Z,6.60
2017-12-17T16:08:00.092Z,7.10
2017-12-17T16:10:27.548Z,7.10
2017-12-17T16:12:55.033Z,7.40
2017-12-17T16:15:22.456Z,8.00
2017-12-17T16:17:49.903Z,7.80
2017-12-17T16:20:18.101Z,8.30
2017-12-17T16:22:45.562Z,8.30
2017-12-17T16:25:13.000Z,8.20
2017-12-17T16:27:40.464Z,8.30
2017-12-17T16:30:07.917Z,8.40
2017-12-17T16:32:35.430Z,8.50
2017-12-17T16:35:02.887Z,8.20
2017-12-17T16:37:30.323Z,8.20
2017-12-17T16:39:57.752Z,8.10
2017-12-17T16:42:25.237Z,7.70
2017-12-17T16:44:52.682Z,7.10
2017-12-17T16:47:20.160Z,7.50
2017-12-17T16:49:47.626Z,7.60
2017-12-17T16:52:15.062Z,7.90
2017-12-17T16:54:42.534Z,7.60
2017-12-17T16:57:10.798Z,7.80
2017-12-17T16:59:38.257Z,8.00
2017-12-17T17:02:05.694Z,8.10
2017-12-17T17:04:33.241Z,8.20
2017-12-17T17:07:01.449Z,7.80
2017-12-17T17:09:28.901Z,7.80
2017-12-17T17:11:56.374Z,7.80
2017-12-17T17:14:23.851Z,7.40
2017-12-17T17:16:51.285Z,7.60
2017-12-17T17:19:18.797Z,7.80
2017-12-17T17:21:46.218Z,8.00
2017-12-17T17:24:13.750Z,8.10
2017-12-17T17:26:41.205Z,7.70
2017-12-17T17:29:08.705Z,7.70
2017-12-17T17:31:36.150Z,7.90
2017-12-17T17:34:03.625Z,8.30
2017-12-17T17:36:31.137Z,8.30
2017-12-17T17:38:58.569Z,8.10
2017-12-17T17:41:25.997Z,8.00
2017-12-17T17:43:53.574Z,7.80
2017-12-17T17:46:21.015Z,7.80
2017-12-17T17:48:48.465Z,8.00
2017-12-17T17:51:16.833Z,8.00
2017-12-17T17:53:45.230Z,7.70
2017-12-17T17:56:13.716Z,7.80
2017-12-17T17:58:42.112Z,7.80
2017-12-17T18:01:09.545Z,7.70
2017-12-17T18:03:37.010Z,7.60
2017-12-17T18:06:05.463Z,7.70
2017-12-17T18:08:32.920Z,7.20
2017-12-17T18:11:00.439Z,7.30
2017-12-17T18:13:28.681Z,7.70
2017-12-17T18:15:56.182Z,7.70
2017-12-17T18:18:23.606Z,7.70
2017-12-17T18:20:51.089Z,7.70
2017-12-17T18:23:18.550Z,7.50
2017-12-17T18:25:45.996Z,7.80
2017-12-17T18:28:14.256Z,7.50
2017-12-17T18:30:43.382Z,7.50
2017-12-17T18:33:11.561Z,7.40
2017-12-17T18:35:38.988Z,7.30
2017-12-17T18:38:07.255Z,7.30
2017-12-17T18:40:34.729Z,7.30
2017-12-17T18:43:02.222Z,7.30
2017-12-17T18:45:29.665Z,7.00
2017-12-17T18:47:57.097Z,7.40
2017-12-17T18:50:25.361Z,6.90
2017-12-17T18:52:52.954Z,6.90
2017-12-17T18:55:21.151Z,7.40
2017-12-17T18:57:48.598Z,7.40
2017-12-17T19:00:16.075Z,7.30
2017-12-17T19:02:43.548Z,7.20
2017-12-17T19:05:10.981Z,6.60
2017-12-17T19:07:38.427Z,6.80
2017-12-17T19:10:05.880Z,6.70
2017-12-17T19:12:33.324Z,7.10
2017-12-17T19:15:00.794Z,7.30
2017-12-17T19:17:28.312Z,7.40
2017-12-17T19:19:55.749Z,7.80
2017-12-17T19:22:23.183Z,7.70
2017-12-17T19:24:50.637Z,7.90
2017-12-17T19:27:18.099Z,7.70
2017-12-17T19:29:45.555Z,7.70
2017-12-17T19:32:13.045Z,7.60
2017-12-17T19:34:40.609Z,7.60
2017-12-17T19:37:08.046Z,7.30
2017-12-17T19:39:35.516Z,7.50
2017-12-17T19:42:03.006Z,7.30
2017-12-17T19:44:30.436Z,7.40
2017-12-17T19:46:57.900Z,7.50
2017-12-17T19:49:25.330Z,7.60
2017-12-17T19:51:52.809Z,7.50
2017-12-17T19:54:20.241Z,7.70
2017-12-17T19:56:47.721Z,7.90
2017-12-17T19:59:15.196Z,7.70
2017-12-17T20:01:42.753Z,7.80
2017-12-17T20:04:10.219Z,7.60
2017-12-17T20:06:37.673Z,7.70
2017-12-17T20:09:05.151Z,7.40
2017-12-17T20:11:33.402Z,8.00
2017-12-17T20:14:00.844Z,7.90
2017-12-17T20:16:28.305Z,7.80
2017-12-17T20:18:55.761Z,7.80
2017-12-17T20:21:23.238Z,7.50
2017-12-17T20:23:50.701Z,7.40
2017-12-17T20:26:18.137Z,7.50
2017-12-17T20:28:45.606Z,7.30
2017-12-17T20:31:13.810Z,7.20
2017-12-17T20:33:42.958Z,7.40
2017-12-17T20:36:10.462Z,7.40
2017-12-17T20:38:38.709Z,7.30
2017-12-17T20:41:06.163Z,7.30
2017-12-17T20:43:33.634Z,7.50
2017-12-17T20:46:01.107Z,7.50
2017-12-17T20:48:28.549Z,7.60
2017-12-17T20:50:56.009Z,7.60
2017-12-17T20:53:23.461Z,7.80
2017-12-17T20:55:50.920Z,7.90
2017-12-17T20:58:19.172Z,7.20
2017-12-17T21:00:46.635Z,7.30
2017-12-17T21:03:15.424Z,7.80
2017-12-17T21:05:45.221Z,8.20
2017-12-17T21:08:12.725Z,8.20
2017-12-17T21:10:40.180Z,8.10
2017-12-17T21:13:07.638Z,7.70
2017-12-17T21:15:35.093Z,7.50
2017-12-17T21:18:02.540Z,7.50
2017-12-17T21:20:29.991Z,7.50
2017-12-17T21:22:57.460Z,7.50
2017-12-17T21:25:24.912Z,7.60
2017-12-17T21:27:53.037Z,7.50
2017-12-17T21:30:20.493Z,7.70
2017-12-17T21:32:47.933Z,7.70
2017-12-17T21:35:16.140Z,7.60
2017-12-17T21:37:43.602Z,7.60
2017-12-17T21:40:11.057Z,7.40
2017-12-17T21:42:38.510Z,7.30
2017-12-17T21:45:05.937Z,7.10
2017-12-17T21:47:34.201Z,7.20
2017-12-17T21:50:02.421Z,7.10
2017-12-17T21:52:29.879Z,7.10
2017-12-17T21:54:58.793Z,7.00
2017-12-17T21:57:26.444Z,7.00
2017-12-17T21:59:53.948Z,7.10
2017-12-17T22:02:21.368Z,6.90
2017-12-17T22:04:48.803Z,7.10
2017-12-17T22:07:16.268Z,7.20
2017-12-17T22:09:43.699Z,7.30
2017-12-17T22:12:11.147Z,7.20
2017-12-17T22:14:39.375Z,7.50
2017-12-17T22:17:06.829Z,7.50
2017-12-17T22:19:34.337Z,7.00
2017-12-17T22:22:02.549Z,7.10
2017-12-17T22:24:30.015Z,7.10
2017-12-17T22:26:57.466Z,7.00
2017-12-17T22:29:24.930Z,7.30
2017-12-17T22:31:52.393Z,7.20
2017-12-17T22:34:19.868Z,7.20
2017-12-17T22:36:47.323Z,7.50
2017-12-17T22:39:14.785Z,7.60
2017-12-17T22:41:43.157Z,7.10
2017-12-17T22:44:10.621Z,7.00
2017-12-17T22:46:38.096Z,7.20
2017-12-17T22:49:05.609Z,7.10
2017-12-17T22:51:33.071Z,7.20
2017-12-17T22:54:00.536Z,6.80
2017-12-17T22:56:27.993Z,7.10
2017-12-17T22:58:55.461Z,7.30
2017-12-17T23:01:22.917Z,6.80
2017-12-17T23:03:50.373Z,7.00
2017-12-17T23:06:17.837Z,7.30
2017-12-17T23:08:46.045Z,7.10
2017-12-17T23:11:13.511Z,7.10
2017-12-17T23:13:40.946Z,7.20
2017-12-17T23:16:08.398Z,7.40
2017-12-17T23:18:35.872Z,7.00
2017-12-17T23:21:03.314Z,6.70
2017-12-17T23:23:30.806Z,6.80
2017-12-17T23:25:58.245Z,6.80
2017-12-17T23:28:25.712Z,6.40
2017-12-17T23:30:53.905Z,6.10
2017-12-17T23:33:21.350Z,6.10
2017-12-17T23:35:48.797Z,6.10
2017-12-17T23:38:16.993Z,6.20
2017-12-17T23:40:45.216Z,6.20
2017-12-17T23:43:12.679Z,6.20
2017-12-17T23:45:40.153Z,6.40
2017-12-17T23:48:07.609Z,6.30
2017-12-17T23:50:35.077Z,6.30
2017-12-17T23:53:03.272Z,6.00
2017-12-17T23:55:30.709Z,6.00
2017-12-17T23:57:58.938Z,6.60
